Terminal Aerodrome Forecast
Issued by NWS

Home | Current Version | Previous Version | Text Only | Print | Product List | Glossary On
Versions: 1 2 3 4 5 6 7 8 9 10 11 12 13 14 15 16 17 18
069
FTUS45 KABQ 212322
TAFSAF
TAF
KSAF 212322Z 2200/2224 26011G18KT P6SM VCSH BKN060
      TEMPO 2200/2202 27017G25KT SCT060
     FM220600 34011KT P6SM SKC=

USA.gov is the U.S. government's official web portal to all federal, state and local government web resources and services.